Time;durP1;ratioP1;P1;durP2;ratioP2;P2;SDS_P1;SDS_P2;PMS_P1;PMS_P2;Temp;Humidity;BMP_temperature;BMP_pressure;BME280_temperature;BME280_humidity;BME280_pressure;Samples;Min_cycle;Max_cycle;Signal;HPM_P1;HPM_P2
2024/01/09 00:01:29;;;;;;;3.67;2.80;;;;;;;-4.65;64.02;103262.25;5085720;28;20044;-72
2024/01/09 00:03:56;;;;;;;2.40;1.52;;;;;;;-4.64;63.73;103264.03;5074443;28;20128;-72
2024/01/09 00:06:24;;;;;;;2.90;1.35;;;;;;;-4.67;63.65;103259.53;5067165;28;20051;-72
2024/01/09 00:08:51;;;;;;;3.97;1.52;;;;;;;-4.71;63.82;103254.97;5077563;28;20089;-72
2024/01/09 00:11:18;;;;;;;2.78;1.42;;;;;;;-4.77;64.30;103255.44;5077266;28;20071;-72
2024/01/09 00:13:45;;;;;;;2.20;1.58;;;;;;;-4.74;64.37;103257.34;5073756;28;20139;-72
2024/01/09 00:16:12;;;;;;;2.35;1.55;;;;;;;-4.80;64.26;103255.22;5075115;28;20067;-72
2024/01/09 00:18:39;;;;;;;2.33;1.48;;;;;;;-4.78;64.14;103256.22;5082050;28;20291;-72
2024/01/09 00:21:07;;;;;;;2.88;1.60;;;;;;;-4.78;64.15;103250.19;5084224;28;20037;-73
2024/01/09 00:23:34;;;;;;;3.65;1.58;;;;;;;-4.82;64.46;103255.91;5067154;28;20063;-71
2024/01/09 00:26:01;;;;;;;11.32;1.58;;;;;;;-4.85;64.41;103248.84;5081692;28;20048;-72
2024/01/09 00:28:28;;;;;;;3.88;1.67;;;;;;;-4.90;64.77;103256.25;5067885;28;20817;-72
2024/01/09 00:30:55;;;;;;;2.63;1.70;;;;;;;-4.91;65.18;103253.53;5068253;28;20483;-72
2024/01/09 00:33:23;;;;;;;2.80;1.48;;;;;;;-4.91;65.02;103257.03;5067307;28;20040;-72
2024/01/09 00:35:50;;;;;;;5.05;3.35;;;;;;;-4.88;64.77;103249.50;5078641;28;20063;-72
2024/01/09 00:38:18;;;;;;;2.83;1.70;;;;;;;-4.87;64.57;103259.03;5082494;28;20102;-72
2024/01/09 00:40:45;;;;;;;3.03;1.60;;;;;;;-4.87;64.48;103261.59;5086689;28;20048;-72
2024/01/09 00:43:12;;;;;;;5.70;2.10;;;;;;;-4.85;64.20;103259.16;5083550;28;20036;-72
2024/01/09 00:45:39;;;;;;;3.33;1.70;;;;;;;-4.86;64.38;103253.09;5080509;28;20612;-72
2024/01/09 00:48:07;;;;;;;1.85;1.15;;;;;;;-4.91;64.37;103244.16;5069803;28;20047;-72
2024/01/09 00:50:35;;;;;;;4.97;1.95;;;;;;;-4.95;64.55;103233.53;5076262;28;20056;-72
2024/01/09 00:53:05;;;;;;;4.03;1.42;;;;;;;-4.94;64.88;103245.63;5068171;28;20044;-72
2024/01/09 00:55:32;;;;;;;2.10;1.30;;;;;;;-4.95;64.62;103246.41;5078873;28;20042;-72
2024/01/09 00:57:59;;;;;;;3.05;1.67;;;;;;;-4.98;64.84;103252.19;5086442;28;20094;-72
2024/01/09 01:00:26;;;;;;;3.38;1.50;;;;;;;-4.99;64.96;103241.03;5087316;28;20052;-71
2024/01/09 01:02:53;;;;;;;6.13;1.75;;;;;;;-5.02;65.39;103248.50;5085047;28;20532;-71
2024/01/09 01:05:20;;;;;;;3.67;1.63;;;;;;;-5.03;65.25;103245.84;5081314;28;20071;-71
2024/01/09 01:07:47;;;;;;;2.53;1.50;;;;;;;-5.08;65.30;103237.78;5075649;28;20093;-71
2024/01/09 01:10:15;;;;;;;2.80;1.38;;;;;;;-5.09;65.45;103238.56;5086429;28;20101;-71
2024/01/09 01:12:47;;;;;;;3.40;1.95;;;;;;;-5.09;65.38;103246.28;5077623;28;20830;-71
2024/01/09 01:15:14;;;;;;;1.65;1.15;;;;;;;-5.12;66.10;103258.91;5073317;28;20532;-72
2024/01/09 01:17:41;;;;;;;3.05;1.55;;;;;;;-5.15;65.55;103241.59;5085963;28;20052;-72
2024/01/09 01:20:09;;;;;;;5.13;1.60;;;;;;;-5.14;66.07;103247.66;5081257;28;20050;-72
2024/01/09 01:22:37;;;;;;;2.35;1.33;;;;;;;-5.16;66.30;103242.38;5070506;28;20647;-72
2024/01/09 01:25:05;;;;;;;2.95;1.50;;;;;;;-5.13;65.95;103240.81;5092323;28;20602;-72
2024/01/09 01:27:32;;;;;;;2.28;1.80;;;;;;;-5.15;66.15;103241.59;5070853;28;20044;-72
2024/01/09 01:29:59;;;;;;;2.50;1.33;;;;;;;-5.15;65.99;103249.31;5089548;28;20075;-72
2024/01/09 01:32:26;;;;;;;2.33;1.27;;;;;;;-5.17;66.43;103250.88;5089917;28;20051;-72
2024/01/09 01:34:53;;;;;;;4.72;1.23;;;;;;;-5.20;66.76;103242.94;5086001;28;20073;-72
2024/01/09 01:37:20;;;;;;;3.47;1.80;;;;;;;-5.19;66.96;103243.84;5089078;28;20044;-72
2024/01/09 01:39:47;;;;;;;4.20;1.90;;;;;;;-5.21;66.82;103247.97;5077666;28;20559;-72
2024/01/09 01:42:14;;;;;;;4.80;1.83;;;;;;;-5.22;67.01;103244.50;5085506;28;20117;-72
2024/01/09 01:44:42;;;;;;;2.88;1.58;;;;;;;-5.21;67.01;103248.88;5081063;28;20120;-72
2024/01/09 01:47:09;;;;;;;2.75;1.38;;;;;;;-5.20;66.91;103236.91;5090684;28;20071;-72
2024/01/09 01:49:37;;;;;;;2.90;1.58;;;;;;;-5.27;67.35;103250.09;5088481;28;20043;-72
2024/01/09 01:52:06;;;;;;;3.42;1.40;;;;;;;-5.28;67.33;103241.47;5080607;28;20047;-72
2024/01/09 01:54:37;;;;;;;3.33;1.20;;;;;;;-5.30;67.41;103243.06;5070929;28;20457;-72
2024/01/09 01:57:06;;;;;;;2.55;1.35;;;;;;;-5.33;67.73;103237.69;5089356;28;20046;-72
2024/01/09 01:59:39;;;;;;;2.72;1.75;;;;;;;-5.34;67.88;103236.75;5082385;28;20040;-72
2024/01/09 02:02:07;;;;;;;3.10;1.80;;;;;;;-5.33;68.02;103230.84;5079628;28;20043;-72
2024/01/09 02:04:35;;;;;;;4.28;1.55;;;;;;;-5.31;67.68;103231.84;5087920;28;20507;-72
2024/01/09 02:07:03;;;;;;;1.65;1.20;;;;;;;-5.30;67.89;103233.66;5094810;28;20063;-72
2024/01/09 02:09:30;;;;;;;3.40;1.70;;;;;;;-5.31;67.99;103226.72;5082331;28;20055;-73
2024/01/09 02:11:58;;;;;;;3.35;1.17;;;;;;;-5.34;68.18;103231.63;5071023;28;20051;-72
2024/01/09 02:14:25;;;;;;;3.40;1.70;;;;;;;-5.36;68.07;103222.94;5072901;28;20036;-72
2024/01/09 02:16:53;;;;;;;3.60;1.80;;;;;;;-5.35;68.22;103223.81;5087716;28;20182;-72
2024/01/09 02:19:20;;;;;;;2.30;1.35;;;;;;;-5.37;68.50;103230.50;5082164;28;20127;-72
2024/01/09 02:21:50;;;;;;;1.38;0.93;;;;;;;-5.42;68.75;103216.44;5083430;28;20048;-72
2024/01/09 02:24:18;;;;;;;3.55;1.30;;;;;;;-5.41;68.33;103226.81;5078651;28;20097;-71
2024/01/09 02:26:56;;;;;;;2.05;1.27;;;;;;;-5.39;68.30;103221.81;5080950;28;20044;-71
2024/01/09 02:29:34;;;;;;;2.35;1.35;;;;;;;-5.42;68.80;103232.75;5085507;28;20123;-72
2024/01/09 02:32:03;;;;;;;2.58;1.30;;;;;;;-5.39;68.32;103229.53;5105210;28;20052;-72
2024/01/09 02:34:34;;;;;;;2.67;1.58;;;;;;;-5.42;68.45;103227.59;5080178;28;20074;-71
2024/01/09 02:37:01;;;;;;;2.22;2.03;;;;;;;-5.43;68.99;103230.94;5080369;28;20052;-72
2024/01/09 02:39:29;;;;;;;2.88;1.27;;;;;;;-5.45;68.78;103219.69;5070830;28;20102;-71
2024/01/09 02:41:56;;;;;;;5.05;3.35;;;;;;;-5.44;68.94;103221.44;5068496;28;20051;-70
2024/01/09 02:44:23;;;;;;;2.33;1.38;;;;;;;-5.43;68.79;103215.53;5075517;28;20222;-71
2024/01/09 02:46:51;;;;;;;2.80;1.45;;;;;;;-5.43;68.69;103218.09;5075395;28;20052;-71
2024/01/09 02:49:18;;;;;;;3.42;1.70;;;;;;;-5.44;68.57;103215.41;5068972;28;20115;-71
2024/01/09 02:51:45;;;;;;;1.98;1.33;;;;;;;-5.44;68.99;103218.88;5069771;28;20045;-71
2024/01/09 02:54:12;;;;;;;2.08;1.13;;;;;;;-5.50;69.08;103218.44;5077317;28;20559;-71
2024/01/09 02:56:41;;;;;;;4.50;1.40;;;;;;;-5.51;69.18;103214.97;5086208;28;20044;-71
2024/01/09 02:59:08;;;;;;;2.42;1.10;;;;;;;-5.52;69.17;103217.41;5068910;28;20040;-71
2024/01/09 03:01:35;;;;;;;4.38;1.75;;;;;;;-5.56;69.52;103223.13;5069283;28;20045;-71
2024/01/09 03:04:03;;;;;;;2.92;1.70;;;;;;;-5.56;69.53;103225.69;5068005;28;20049;-71
2024/01/09 03:06:30;;;;;;;5.20;1.77;;;;;;;-5.58;69.27;103217.84;5072169;28;20040;-71
2024/01/09 03:08:57;;;;;;;2.33;1.33;;;;;;;-5.57;69.64;103229.06;5063597;28;20043;-71
2024/01/09 03:11:24;;;;;;;3.70;1.35;;;;;;;-5.58;69.74;103234.97;5078115;28;20152;-72
2024/01/09 03:13:52;;;;;;;5.22;1.77;;;;;;;-5.59;69.56;103230.59;5085494;28;20036;-72
2024/01/09 03:16:19;;;;;;;2.13;1.35;;;;;;;-5.64;69.64;103227.69;5086101;28;20048;-72
2024/01/09 03:18:46;;;;;;;3.55;1.52;;;;;;;-5.67;69.97;103224.88;5083180;28;20453;-71
2024/01/09 03:21:13;;;;;;;1.75;1.10;;;;;;;-5.68;69.94;103224.00;5085779;28;20578;-71
2024/01/09 03:23:40;;;;;;;3.70;1.20;;;;;;;-5.67;70.03;103224.88;5097148;28;20097;-71
2024/01/09 03:26:07;;;;;;;4.07;1.65;;;;;;;-5.67;69.92;103232.59;5086506;28;20516;-71
2024/01/09 03:28:37;;;;;;;1.83;1.38;;;;;;;-5.68;70.03;103228.25;5067258;28;20094;-72
2024/01/09 03:31:04;;;;;;;3.40;1.60;;;;;;;-5.69;70.31;103222.22;5074717;28;20048;-72
2024/01/09 03:33:31;;;;;;;5.55;1.92;;;;;;;-5.69;70.33;103229.00;5086960;28;20713;-72
2024/01/09 03:36:04;;;;;;;1.75;1.02;;;;;;;-5.73;70.46;103220.19;5077314;28;20048;-72
2024/01/09 03:38:31;;;;;;;3.38;2.05;;;;;;;-5.73;70.45;103215.03;5078626;28;20716;-72
2024/01/09 03:40:58;;;;;;;4.72;3.20;;;;;;;-5.75;70.73;103223.44;5069707;28;20048;-71
2024/01/09 03:43:26;;;;;;;3.92;1.95;;;;;;;-5.75;70.64;103221.78;5086585;28;20123;-71
2024/01/09 03:45:54;;;;;;;2.05;1.08;;;;;;;-5.78;70.89;103216.38;5077844;28;20132;-71
2024/01/09 03:48:21;;;;;;;4.15;1.80;;;;;;;-5.78;70.82;103221.53;5075320;28;20097;-71
2024/01/09 03:50:48;;;;;;;2.78;1.42;;;;;;;-5.76;70.67;103222.53;5085709;28;20531;-71
2024/01/09 03:53:16;;;;;;;2.85;1.33;;;;;;;-5.79;70.96;103220.63;5070966;28;20136;-71
2024/01/09 03:55:43;;;;;;;2.50;1.60;;;;;;;-5.78;71.14;103218.97;5083444;28;20841;-71
2024/01/09 03:58:11;;;;;;;3.47;1.33;;;;;;;-5.78;70.86;103221.53;5076348;28;20094;-71
2024/01/09 04:00:38;;;;;;;3.42;1.42;;;;;;;-5.78;70.85;103218.97;5084268;28;20127;-72
2024/01/09 04:03:05;;;;;;;1.83;1.35;;;;;;;-5.75;70.83;103219.19;5101995;28;20048;-72
2024/01/09 04:05:33;;;;;;;3.28;1.90;;;;;;;-5.73;70.77;103224.44;5082561;28;20823;-72
2024/01/09 04:08:00;;;;;;;1.80;1.20;;;;;;;-5.73;70.45;103225.31;5083215;28;20040;-72
2024/01/09 04:10:27;;;;;;;2.90;1.88;;;;;;;-5.75;71.02;103226.00;5083615;28;20127;-72
2024/01/09 04:12:54;;;;;;;3.20;2.00;;;;;;;-5.77;70.96;103218.19;5077956;28;20048;-71
2024/01/09 04:15:34;;;;;;;5.30;2.28;;;;;;;-5.80;71.16;103213.69;5081734;28;20656;-71
2024/01/09 04:18:05;;;;;;;2.25;1.40;;;;;;;-5.82;71.18;103220.41;5067201;28;20048;-71
2024/01/09 04:20:33;;;;;;;3.22;1.92;;;;;;;-5.82;71.48;103210.13;5066598;28;20044;-71
2024/01/09 04:23:00;;;;;;;3.78;1.48;;;;;;;-5.81;71.13;103218.72;5084253;28;20071;-71
2024/01/09 04:25:27;;;;;;;3.20;1.85;;;;;;;-5.79;70.91;103214.59;5099950;28;20048;-72
2024/01/09 04:27:54;;;;;;;4.30;1.83;;;;;;;-5.80;71.09;103202.53;5075218;28;20040;-72
2024/01/09 04:30:21;;;;;;;3.13;1.45;;;;;;;-5.79;71.07;103200.06;5099393;28;20120;-73
2024/01/09 04:32:48;;;;;;;4.28;1.63;;;;;;;-5.78;71.02;103203.53;5068097;28;20560;-73
2024/01/09 04:35:15;;;;;;;4.00;1.98;;;;;;;-5.79;71.19;103212.03;5049572;28;20041;-72
2024/01/09 04:37:43;;;;;;;2.08;1.13;;;;;;;-5.83;71.40;103198.06;5077979;28;20043;-73
2024/01/09 04:40:10;;;;;;;3.05;1.60;;;;;;;-5.85;71.65;103202.19;5070110;28;20079;-73
2024/01/09 04:42:37;;;;;;;3.05;1.52;;;;;;;-5.87;71.77;103205.44;5076893;28;20124;-73
2024/01/09 04:45:05;;;;;;;5.05;1.80;;;;;;;-5.87;71.90;103202.84;5089762;28;20117;-73
2024/01/09 04:47:32;;;;;;;6.65;1.88;;;;;;;-5.87;71.88;103203.75;5079069;28;20040;-72
2024/01/09 04:49:59;;;;;;;2.60;1.80;;;;;;;-5.92;71.80;103202.50;5087504;28;20044;-72
2024/01/09 04:52:26;;;;;;;2.58;1.63;;;;;;;-5.90;72.04;103205.19;5084973;28;20050;-71
2024/01/09 04:54:53;;;;;;;2.75;1.25;;;;;;;-5.92;72.08;103205.06;5098427;28;20105;-71
2024/01/09 04:57:21;;;;;;;4.47;1.45;;;;;;;-5.95;72.21;103210.84;5101007;28;20100;-71
2024/01/09 04:59:49;;;;;;;3.75;2.17;;;;;;;-5.97;72.22;103212.44;5079933;28;20044;-72
2024/01/09 05:02:17;;;;;;;3.13;1.77;;;;;;;-5.98;72.10;103200.38;5074201;28;20055;-72
2024/01/09 05:04:44;;;;;;;2.67;1.10;;;;;;;-5.99;72.61;103207.97;5090484;28;20064;-72
2024/01/09 05:07:12;;;;;;;3.22;1.67;;;;;;;-6.03;72.76;103209.41;5074750;28;20040;-71
2024/01/09 05:09:39;;;;;;;5.22;1.40;;;;;;;-6.05;72.87;103203.25;5072042;28;20046;-71
2024/01/09 05:12:06;;;;;;;6.00;3.63;;;;;;;-6.02;72.93;103202.63;5086727;28;20050;-72
2024/01/09 05:14:33;;;;;;;5.65;1.77;;;;;;;-6.02;73.05;103212.91;5070554;28;20672;-72
2024/01/09 05:17:00;;;;;;;2.75;1.98;;;;;;;-6.06;72.76;103214.34;5070560;28;20055;-72
2024/01/09 05:19:27;;;;;;;3.25;1.70;;;;;;;-6.07;72.83;103216.78;5071220;28;20075;-72
2024/01/09 05:21:55;;;;;;;2.22;1.52;;;;;;;-6.07;73.05;103212.56;5070474;28;20528;-71
2024/01/09 05:24:23;;;;;;;3.50;1.98;;;;;;;-6.12;73.06;103219.91;5081211;28;20124;-71
2024/01/09 05:26:50;;;;;;;2.90;1.55;;;;;;;-6.12;73.39;103214.78;5073686;28;20123;-72
2024/01/09 05:29:17;;;;;;;2.92;1.50;;;;;;;-6.12;73.80;103219.00;5082705;28;20090;-72
2024/01/09 05:31:44;;;;;;;3.90;1.73;;;;;;;-6.15;73.61;103219.66;5073837;28;20177;-72
2024/01/09 05:34:11;;;;;;;3.63;2.08;;;;;;;-6.16;73.62;103222.13;5080410;28;20519;-73
2024/01/09 05:36:39;;;;;;;7.93;1.20;;;;;;;-6.17;73.82;103215.19;5077123;28;20044;-72
2024/01/09 05:39:06;;;;;;;3.78;1.90;;;;;;;-6.18;73.97;103219.41;5081144;28;20074;-71
2024/01/09 05:41:35;;;;;;;3.58;1.75;;;;;;;-6.17;73.88;103212.63;5072076;28;20049;-71
2024/01/09 05:44:02;;;;;;;6.20;3.85;;;;;;;-6.15;73.87;103209.41;5089744;28;20051;-71
2024/01/09 05:46:29;;;;;;;3.40;2.03;;;;;;;-6.16;73.64;103214.44;5088945;28;20127;-71
2024/01/09 05:48:56;;;;;;;7.18;2.38;;;;;;;-6.17;73.80;103213.50;5085094;28;20097;-72
2024/01/09 05:51:23;;;;;;;5.30;2.45;;;;;;;-6.15;74.00;103216.19;5077342;28;20626;-72
2024/01/09 05:53:51;;;;;;;5.38;1.90;;;;;;;-6.11;75.20;103210.53;5070697;28;20048;-72
2024/01/09 05:56:18;;;;;;;5.50;2.38;;;;;;;-6.03;75.54;103214.56;5086107;28;20713;-75
2024/01/09 05:58:45;;;;;;;4.15;2.38;;;;;;;-6.00;75.23;103213.94;5094664;28;20143;-73
2024/01/09 06:01:12;;;;;;;3.47;1.85;;;;;;;-6.05;74.47;103218.69;5075520;28;20039;-73
2024/01/09 06:03:39;;;;;;;3.97;1.75;;;;;;;-6.09;74.33;103214.09;5080702;28;20040;-73
2024/01/09 06:06:06;;;;;;;2.58;1.33;;;;;;;-6.14;75.15;103218.91;5080354;28;20036;-73
2024/01/09 06:08:33;;;;;;;2.83;1.77;;;;;;;-6.15;74.92;103223.88;5091150;28;20618;-73
2024/01/09 06:11:01;;;;;;;4.47;1.77;;;;;;;-6.20;74.75;103220.97;5072331;28;20634;-73
2024/01/09 06:13:28;;;;;;;3.47;1.90;;;;;;;-6.16;75.26;103215.31;5079558;28;20044;-73
2024/01/09 06:15:55;;;;;;;4.47;2.13;;;;;;;-6.15;74.81;103218.75;5078565;28;20634;-73
2024/01/09 06:18:22;;;;;;;4.88;2.60;;;;;;;-6.13;74.58;103227.47;5082307;28;20044;-73
2024/01/09 06:20:52;;;;;;;3.50;2.00;;;;;;;-6.15;74.72;103226.47;5081335;28;20495;-73
2024/01/09 06:23:19;;;;;;;4.22;2.25;;;;;;;-6.15;74.97;103219.66;5086555;28;20114;-73
2024/01/09 06:25:46;;;;;;;5.57;2.28;;;;;;;-6.13;74.49;103224.91;5069244;28;20157;-72
2024/01/09 06:28:13;;;;;;;5.80;2.10;;;;;;;-6.15;74.16;103222.25;5072596;28;20584;-72
2024/01/09 06:30:40;;;;;;;4.05;1.92;;;;;;;-6.19;74.30;103225.34;5077869;28;20090;-73
2024/01/09 06:33:08;;;;;;;6.70;5.05;;;;;;;-6.21;74.27;103214.06;5077948;28;20089;-72
2024/01/09 06:35:35;;;;;;;4.70;2.10;;;;;;;-6.19;74.20;103221.88;5078844;28;20036;-72
2024/01/09 06:38:03;;;;;;;3.95;1.95;;;;;;;-6.21;74.35;103218.31;5079007;28;20048;-71
2024/01/09 06:40:30;;;;;;;4.65;1.80;;;;;;;-6.25;74.54;103223.19;5074791;28;20447;-71
2024/01/09 06:42:57;;;;;;;8.27;2.40;;;;;;;-6.27;74.39;103229.00;5091163;28;20149;-72
2024/01/09 06:45:24;;;;;;;3.58;2.28;;;;;;;-6.27;74.47;103221.28;5075591;28;20074;-71
2024/01/09 06:47:51;;;;;;;4.65;1.85;;;;;;;-6.26;74.27;103230.78;5095896;28;20043;-71
2024/01/09 06:50:18;;;;;;;4.93;2.35;;;;;;;-6.28;74.52;103222.97;5080004;28;20047;-71
2024/01/09 06:53:00;;;;;;;3.40;1.77;;;;;;;-6.27;74.70;103240.19;5069285;28;20078;-71
2024/01/09 06:55:27;;;;;;;4.28;2.25;;;;;;;-6.27;74.72;103234.13;5084376;28;20048;-71
2024/01/09 06:57:55;;;;;;;3.70;2.42;;;;;;;-6.27;74.14;103218.72;5083527;28;20048;-72
2024/01/09 07:00:22;;;;;;;8.10;3.38;;;;;;;-6.22;74.16;103234.47;5072870;28;20096;-71
2024/01/09 07:02:49;;;;;;;5.85;1.92;;;;;;;-6.24;74.15;103240.38;5075493;28;20442;-71
2024/01/09 07:05:16;;;;;;;4.82;2.60;;;;;;;-6.27;74.21;103242.75;5086970;28;20134;-71
2024/01/09 07:07:44;;;;;;;4.72;2.08;;;;;;;-6.31;74.44;103250.97;5067697;28;20332;-72
2024/01/09 07:10:17;;;;;;;4.90;1.85;;;;;;;-6.32;74.82;103243.16;5073757;28;20040;-72
2024/01/09 07:12:44;;;;;;;3.85;2.25;;;;;;;-6.33;74.96;103244.81;5068598;28;20118;-71
2024/01/09 07:15:14;;;;;;;4.32;2.38;;;;;;;-6.34;74.65;103253.28;5073474;28;20047;-71
2024/01/09 07:17:45;;;;;;;5.63;2.45;;;;;;;-6.36;75.28;103249.75;5069237;28;20061;-71
2024/01/09 07:20:14;;;;;;;4.22;2.65;;;;;;;-6.38;75.09;103256.41;5074724;28;20729;-72
2024/01/09 07:22:41;;;;;;;4.70;2.72;;;;;;;-6.42;75.57;103252.72;5101037;28;20478;-71
2024/01/09 07:25:14;;;;;;;4.45;2.45;;;;;;;-6.46;75.76;103257.50;5087307;28;20766;-70
2024/01/09 07:27:41;;;;;;;5.68;2.42;;;;;;;-6.48;75.87;103253.91;5082499;28;20551;-70
2024/01/09 07:30:09;;;;;;;4.57;2.30;;;;;;;-6.50;76.04;103265.72;5078010;28;20050;-70
2024/01/09 07:32:37;;;;;;;4.68;2.88;;;;;;;-6.51;75.97;103267.38;5086851;28;20229;-70
2024/01/09 07:35:06;;;;;;;4.85;2.53;;;;;;;-6.53;76.54;103266.38;5088100;28;20056;-70
2024/01/09 07:37:33;;;;;;;7.60;2.53;;;;;;;-6.53;76.46;103266.38;5072433;28;20139;-70
2024/01/09 07:40:00;;;;;;;4.35;2.55;;;;;;;-6.56;76.49;103269.56;5068304;28;20123;-70
2024/01/09 07:42:27;;;;;;;5.47;3.08;;;;;;;-6.60;76.79;103280.41;5071867;28;20039;-70
2024/01/09 07:44:55;;;;;;;5.70;3.10;;;;;;;-6.61;77.20;103281.16;5078284;28;20135;-70
2024/01/09 07:47:22;;;;;;;5.68;2.58;;;;;;;-6.63;77.33;103274.13;5078775;28;20044;-70
2024/01/09 07:49:49;;;;;;;5.35;2.70;;;;;;;-6.66;76.93;103274.75;5088253;28;20044;-70
2024/01/09 07:52:17;;;;;;;6.18;2.88;;;;;;;-6.64;77.09;103280.91;5101176;28;20128;-70
2024/01/09 07:54:44;;;;;;;4.65;2.63;;;;;;;-6.64;77.32;103286.03;5100301;28;20050;-71
2024/01/09 07:57:12;;;;;;;5.88;2.67;;;;;;;-6.61;76.82;103293.13;5088049;28;20476;-70
2024/01/09 07:59:48;;;;;;;7.10;2.85;;;;;;;-6.63;77.11;103284.41;5087709;28;20710;-70
2024/01/09 08:02:15;;;;;;;6.45;2.75;;;;;;;-6.61;76.87;103291.44;5071269;28;20056;-70
2024/01/09 08:04:43;;;;;;;5.32;2.88;;;;;;;-6.55;76.58;103289.34;5069238;28;20107;-70
2024/01/09 08:07:10;;;;;;;7.35;2.90;;;;;;;-6.56;76.43;103287.53;5080105;28;20047;-70
2024/01/09 08:09:37;;;;;;;4.00;2.38;;;;;;;-6.55;76.54;103286.78;5087362;28;20485;-70
2024/01/09 08:12:04;;;;;;;5.53;2.45;;;;;;;-6.53;76.53;103291.13;5078688;28;20617;-71
2024/01/09 08:14:32;;;;;;;5.28;2.50;;;;;;;-6.53;76.66;103293.69;5071828;28;20032;-71
2024/01/09 08:16:59;;;;;;;6.38;2.83;;;;;;;-6.52;76.77;103298.06;5072314;28;20072;-71
2024/01/09 08:19:26;;;;;;;4.85;2.38;;;;;;;-6.50;76.88;103288.81;5076709;28;20044;-71
2024/01/09 08:21:53;;;;;;;7.70;3.72;;;;;;;-6.43;76.19;103292.00;5073316;28;20059;-71
2024/01/09 08:24:22;;;;;;;4.55;2.38;;;;;;;-6.38;76.03;103294.94;5054876;28;20044;-71
2024/01/09 08:26:49;;;;;;;5.47;2.88;;;;;;;-6.34;75.78;103296.94;5078290;28;20126;-71
2024/01/09 08:29:17;;;;;;;2.92;1.83;;;;;;;-6.32;75.78;103295.41;5087990;28;20127;-71
2024/01/09 08:31:48;;;;;;;5.97;3.00;;;;;;;-6.27;75.23;103299.25;5083451;28;20408;-71
2024/01/09 08:34:16;;;;;;;5.70;2.80;;;;;;;-6.23;75.42;103302.94;5071662;28;20420;-71
2024/01/09 08:36:45;;;;;;;6.50;3.03;;;;;;;-6.21;75.15;103298.81;5087112;28;20045;-70
2024/01/09 08:39:15;;;;;;;5.07;2.55;;;;;;;-6.14;74.91;103301.09;5071068;28;20040;-69
2024/01/09 08:41:42;;;;;;;3.35;2.05;;;;;;;-6.09;74.61;103302.31;5087626;28;20473;-70
2024/01/09 08:44:10;;;;;;;4.65;2.58;;;;;;;-6.07;74.08;103307.59;5074715;28;20048;-71
2024/01/09 08:46:37;;;;;;;5.88;2.75;;;;;;;-6.05;74.25;103306.00;5090406;28;20649;-71
2024/01/09 08:49:05;;;;;;;3.95;2.53;;;;;;;-5.96;73.91;103303.25;5107736;28;20072;-70
2024/01/09 08:51:32;;;;;;;8.57;2.55;;;;;;;-5.88;73.55;103311.53;5098927;28;20051;-71
2024/01/09 08:53:59;;;;;;;4.32;2.58;;;;;;;-5.86;73.14;103310.88;5090894;28;20538;-70
2024/01/09 08:56:27;;;;;;;5.95;2.60;;;;;;;-5.81;73.16;103311.22;5092283;28;20044;-70
2024/01/09 08:58:54;;;;;;;5.38;1.88;;;;;;;-5.74;72.16;103307.47;5089889;28;20406;-70
2024/01/09 09:01:21;;;;;;;5.32;2.58;;;;;;;-5.69;71.86;103308.69;5092026;28;20040;-70
2024/01/09 09:03:49;;;;;;;5.70;2.65;;;;;;;-5.66;71.98;103312.41;5091238;28;20044;-70
2024/01/09 09:06:16;;;;;;;5.10;2.58;;;;;;;-5.62;72.10;103308.41;5091877;28;20040;-70
2024/01/09 09:08:45;;;;;;;5.50;2.55;;;;;;;-5.56;71.82;103316.56;5089974;28;20159;-70
2024/01/09 09:11:16;;;;;;;6.40;2.88;;;;;;;-5.50;71.23;103318.69;5089775;28;20043;-70
2024/01/09 09:13:44;;;;;;;5.18;2.13;;;;;;;-5.44;70.65;103321.72;5091770;28;20054;-71
2024/01/09 09:16:12;;;;;;;5.38;2.45;;;;;;;-5.41;70.38;103309.09;5091688;28;20572;-70
2024/01/09 09:18:39;;;;;;;6.47;3.08;;;;;;;-5.34;69.72;103310.47;5090648;28;20078;-70
2024/01/09 09:21:06;;;;;;;3.97;2.20;;;;;;;-5.26;69.47;103318.75;5091265;28;20384;-70
2024/01/09 09:23:33;;;;;;;7.60;2.65;;;;;;;-5.23;69.66;103318.97;5089945;28;20043;-70
2024/01/09 09:26:01;;;;;;;7.47;3.05;;;;;;;-5.17;68.85;103322.00;5090392;28;20131;-70
2024/01/09 09:28:28;;;;;;;4.10;2.28;;;;;;;-5.12;68.28;103318.09;5074645;28;20048;-70
2024/01/09 09:31:11;;;;;;;7.43;3.08;;;;;;;-5.03;67.93;103318.75;5070620;28;20056;-70
2024/01/09 09:33:41;;;;;;;6.05;2.90;;;;;;;-5.00;67.68;103312.97;5072544;28;20120;-70
2024/01/09 09:36:11;;;;;;;3.70;1.70;;;;;;;-4.94;67.41;103321.13;5090497;28;20072;-70
2024/01/09 09:38:39;;;;;;;4.75;3.00;;;;;;;-4.85;66.46;103323.50;5091407;28;20127;-70
2024/01/09 09:41:07;;;;;;;8.65;3.08;;;;;;;-4.82;66.50;103327.97;5105447;28;20123;-70
2024/01/09 09:43:38;;;;;;;4.95;2.30;;;;;;;-4.80;66.70;103310.97;5068867;28;20037;-70
2024/01/09 09:46:17;;;;;;;5.53;2.30;;;;;;;-4.76;66.94;103319.00;5087190;28;20051;-70
2024/01/09 09:48:45;;;;;;;6.00;2.30;;;;;;;-4.71;65.88;103309.03;5089702;28;20040;-72
2024/01/09 09:51:12;;;;;;;5.32;2.13;;;;;;;-4.64;65.81;103311.28;5089349;28;20044;-70
2024/01/09 09:53:39;;;;;;;8.30;5.18;;;;;;;-4.55;64.75;103305.91;5090979;28;20051;-70
2024/01/09 09:56:07;;;;;;;7.30;3.42;;;;;;;-4.50;64.83;103306.22;5089722;28;20036;-70
2024/01/09 09:58:34;;;;;;;7.63;2.83;;;;;;;-4.46;63.94;103297.91;5074524;28;20051;-72
2024/01/09 10:01:02;;;;;;;4.38;2.60;;;;;;;-4.42;63.80;103300.81;5070283;28;20121;-70
2024/01/09 10:03:35;;;;;;;3.70;2.00;;;;;;;-4.41;63.78;103302.59;5070083;28;20126;-70
2024/01/09 10:06:08;;;;;;;5.22;3.20;;;;;;;-4.28;63.23;103295.75;5069890;28;20039;-71
2024/01/09 10:08:35;;;;;;;7.40;3.15;;;;;;;-4.23;63.00;103302.13;5069823;28;20046;-71
2024/01/09 10:11:03;;;;;;;6.47;3.42;;;;;;;-4.19;62.70;103298.97;5078776;28;20070;-70
2024/01/09 10:13:30;;;;;;;5.30;2.78;;;;;;;-4.14;62.59;103291.56;5090262;28;20131;-71
2024/01/09 10:16:02;;;;;;;5.43;2.35;;;;;;;-4.09;62.35;103295.34;5085600;28;20068;-70
2024/01/09 10:18:31;;;;;;;8.20;3.17;;;;;;;-4.01;61.79;103294.19;5070332;28;20048;-71
2024/01/09 10:21:03;;;;;;;5.68;3.05;;;;;;;-3.95;61.53;103283.41;5070069;28;20044;-70
2024/01/09 10:23:30;;;;;;;8.70;5.25;;;;;;;-3.88;61.55;103277.00;5070032;28;20142;-70
2024/01/09 10:25:57;;;;;;;5.25;2.80;;;;;;;-3.83;61.41;103276.53;5084421;28;20118;-70
2024/01/09 10:28:24;;;;;;;4.10;2.38;;;;;;;-3.74;59.82;103286.56;5071129;28;20627;-70
2024/01/09 10:30:52;;;;;;;4.65;2.38;;;;;;;-3.71;59.65;103273.00;5105548;28;20060;-70
2024/01/09 10:33:20;;;;;;;6.25;2.55;;;;;;;-3.68;59.59;103273.19;5087651;28;20481;-70
2024/01/09 10:35:48;;;;;;;4.60;2.58;;;;;;;-3.59;58.98;103273.81;5052116;28;20040;-71
2024/01/09 10:38:24;;;;;;;5.00;2.30;;;;;;;-3.53;58.93;103270.75;5035849;28;20042;-70
2024/01/09 10:40:56;;;;;;;5.57;2.00;;;;;;;-3.49;58.91;103268.47;5060980;28;20044;-70
2024/01/09 10:43:25;;;;;;;7.18;4.65;;;;;;;-3.43;58.54;103265.41;5040588;28;20059;-70
2024/01/09 10:45:53;;;;;;;6.32;2.63;;;;;;;-3.42;58.52;103251.72;5047394;28;20493;-70
2024/01/09 10:48:21;;;;;;;5.22;2.53;;;;;;;-3.37;58.81;103255.50;5046573;28;20463;-70
2024/01/09 10:50:51;;;;;;;2.63;1.70;;;;;;;-3.31;58.13;103255.91;5037166;28;20123;-70
2024/01/09 10:53:24;;;;;;;4.53;3.08;;;;;;;-3.21;56.49;103251.34;5045922;28;20087;-70
2024/01/09 10:55:54;;;;;;;6.03;2.42;;;;;;;-3.19;56.05;103240.31;5048208;28;20679;-71
2024/01/09 10:58:24;;;;;;;3.85;2.33;;;;;;;-3.12;56.08;103233.88;5038463;28;20048;-70
2024/01/09 11:00:54;;;;;;;4.03;2.17;;;;;;;-3.07;55.30;103237.66;5053682;28;20049;-70
2024/01/09 11:03:22;;;;;;;6.68;4.28;;;;;;;-3.02;54.66;103245.69;5038839;28;20632;-71
2024/01/09 11:05:59;;;;;;;4.13;2.20;;;;;;;-2.94;54.75;103235.84;5041031;28;20120;-72
2024/01/09 11:08:28;;;;;;;5.25;2.28;;;;;;;-2.94;54.85;103239.31;5058752;28;20128;-70
2024/01/09 11:10:55;;;;;;;6.90;4.40;;;;;;;-2.87;54.86;103233.75;5039242;28;20033;-71
2024/01/09 11:13:24;;;;;;;6.28;2.75;;;;;;;-2.78;53.98;103236.03;5033546;28;20050;-71
2024/01/09 11:15:55;;;;;;;8.32;2.38;;;;;;;-2.72;52.90;103233.81;5030843;28;20575;-70
2024/01/09 11:18:24;;;;;;;3.70;1.73;;;;;;;-2.68;52.67;103228.06;5029527;28;20107;-71
2024/01/09 11:21:11;;;;;;;5.03;2.00;;;;;;;-2.61;52.71;103234.50;5047524;28;20045;-71
2024/01/09 11:23:52;;;;;;;4.05;2.10;;;;;;;-2.58;52.26;103229.53;5040447;28;20056;-71
2024/01/09 11:26:20;;;;;;;6.30;2.28;;;;;;;-2.53;52.64;103224.63;5038438;28;20041;-70
2024/01/09 11:28:47;;;;;;;4.38;2.20;;;;;;;-2.46;50.87;103216.50;5049219;28;20464;-71